Saint Marys, Kansas
Current Conditions -  °F | °C
As of 2:53 PM on Tuesday 27 Jan 2015 (Local Time) from KTOP Reporting Station
Clear Clear  
Wind Chill: 60°   Ceiling: Unl
Heat Index: 60°   Visibility: 10mi
Dew Point: 32°   Wind: 12mph
Humidity: 35%   Direction: 130°SE
Pressure: 30.06"   Gusts: NA
Location:  39.19°N, 96.07°W
Report Text: KTOP 272053Z 13010KT 10SM CLR 16/00 A3006 RMK AO2 SLP182 T01560000 56031
Loading
Personal Weather Stations






























Interactive Weather Map New forecast layout! Learn more

10-Day Weather Forecast

Advertisements
Track Severe Weather on mobile